Time;durP1;ratioP1;P1;durP2;ratioP2;P2;SDS_P1;SDS_P2;PMS_P1;PMS_P2;Temp;Humidity;BMP_temperature;BMP_pressure;BME280_temperature;BME280_humidity;BME280_pressure;Samples;Min_cycle;Max_cycle;Signal;HPM_P1;HPM_P2
2021/04/29 00:01:54;;;;;;;20.00;10.47;;;7.60;64.00;;;;;;4441144;32;20248;-68
2021/04/29 00:04:21;;;;;;;19.17;10.10;;;7.60;64.30;;;;;;4440721;32;20217;-68
2021/04/29 00:06:47;;;;;;;18.77;10.07;;;7.60;64.90;;;;;;4441642;32;20154;-68
2021/04/29 00:09:14;;;;;;;20.37;11.17;;;7.50;65.80;;;;;;4441436;32;20193;-68
2021/04/29 00:11:41;;;;;;;21.43;9.70;;;7.50;66.20;;;;;;4440624;32;20428;-68
2021/04/29 00:14:10;;;;;;;19.03;10.13;;;7.40;66.30;;;;;;4441160;32;20502;-68
2021/04/29 00:16:38;;;;;;;22.73;10.43;;;7.40;66.30;;;;;;4441084;32;20154;-68
2021/04/29 00:19:06;;;;;;;23.43;10.70;;;7.30;66.10;;;;;;4440844;32;20237;-68
2021/04/29 00:21:33;;;;;;;18.77;9.97;;;7.40;66.30;;;;;;4440831;32;20205;-68
2021/04/29 00:23:59;;;;;;;21.63;10.23;;;7.40;66.60;;;;;;4439952;32;20166;-68
2021/04/29 00:26:26;;;;;;;19.80;10.30;;;7.30;66.60;;;;;;4440320;32;20207;-68
2021/04/29 00:28:53;;;;;;;23.73;10.20;;;7.20;67.50;;;;;;4440894;32;20624;-68
2021/04/29 00:31:21;;;;;;;22.10;10.40;;;7.10;68.00;;;;;;4440869;32;20214;-68
2021/04/29 00:33:48;;;;;;;22.40;10.23;;;7.20;68.00;;;;;;4441206;32;20162;-70
2021/04/29 00:36:15;;;;;;;21.90;10.87;;;7.10;68.20;;;;;;4441293;32;20186;-68
2021/04/29 00:39:02;;;;;;;18.13;9.30;;;7.10;68.70;;;;;;4441217;32;20173;-68
2021/04/29 00:41:40;;;;;;;22.17;9.47;;;7.00;69.00;;;;;;4441334;32;20229;-68
2021/04/29 00:44:30;;;;;;;21.33;9.80;;;7.00;69.60;;;;;;4440006;32;20150;-69
2021/04/29 00:47:17;;;;;;;20.07;9.37;;;7.00;69.50;;;;;;4434877;32;20175;-69
2021/04/29 00:49:48;;;;;;;20.37;9.93;;;7.00;69.70;;;;;;4440907;32;20208;-68
2021/04/29 00:52:15;;;;;;;19.20;10.00;;;7.00;70.00;;;;;;4440695;32;20228;-68
2021/04/29 00:54:41;;;;;;;20.13;9.70;;;7.00;70.20;;;;;;4439473;32;20203;-68
2021/04/29 00:57:08;;;;;;;19.27;10.00;;;6.90;70.70;;;;;;4439494;32;20166;-67
2021/04/29 00:59:35;;;;;;;21.10;10.13;;;6.90;70.60;;;;;;4440995;32;20204;-68
2021/04/29 01:02:04;;;;;;;19.50;10.37;;;6.90;70.70;;;;;;4440476;32;20169;-67
2021/04/29 01:04:47;;;;;;;21.23;10.37;;;6.90;71.70;;;;;;4439199;32;20189;-67
2021/04/29 01:07:15;;;;;;;19.37;9.77;;;6.80;71.40;;;;;;4441017;32;20413;-67
2021/04/29 01:09:52;;;;;;;17.10;9.57;;;6.80;73.30;;;;;;4440901;32;20194;-67
2021/04/29 01:12:22;;;;;;;20.37;9.93;;;6.80;72.50;;;;;;4441312;32;20150;-68
2021/04/29 01:14:50;;;;;;;17.40;9.87;;;6.70;73.60;;;;;;4440788;32;20162;-67
2021/04/29 01:17:18;;;;;;;17.93;9.97;;;6.70;73.10;;;;;;4444016;32;20154;-67
2021/04/29 01:20:19;;;;;;;20.83;10.10;;;6.70;73.70;;;;;;4444074;32;20197;-67
2021/04/29 01:23:11;;;;;;;19.37;10.70;;;6.60;74.80;;;;;;4437097;32;20172;-68
2021/04/29 01:25:41;;;;;;;16.47;9.80;;;6.50;74.30;;;;;;4443948;32;20150;-67
2021/04/29 01:28:08;;;;;;;18.93;10.00;;;6.50;74.30;;;;;;4444079;32;20194;-67
2021/04/29 01:30:37;;;;;;;21.00;10.20;;;6.50;74.20;;;;;;4443288;32;20231;-67
2021/04/29 01:33:05;;;;;;;18.50;10.30;;;6.50;74.50;;;;;;4443812;32;20161;-67
2021/04/29 01:35:32;;;;;;;23.07;10.87;;;6.50;74.80;;;;;;4443818;32;20161;-67
2021/04/29 01:37:59;;;;;;;18.97;10.40;;;6.40;75.20;;;;;;4442234;32;20207;-67
2021/04/29 01:40:26;;;;;;;18.00;10.47;;;6.40;76.10;;;;;;4443676;32;20230;-69
2021/04/29 01:42:52;;;;;;;22.40;10.60;;;6.40;76.10;;;;;;4443698;32;20195;-68
2021/04/29 01:45:19;;;;;;;18.80;10.23;;;6.40;76.30;;;;;;4443189;32;20225;-68
2021/04/29 01:47:46;;;;;;;17.27;10.13;;;6.30;76.30;;;;;;4438191;32;20211;-67
2021/04/29 01:50:13;;;;;;;19.77;10.17;;;6.30;76.80;;;;;;4443500;32;20176;-69
2021/04/29 01:52:40;;;;;;;18.27;9.83;;;6.30;76.90;;;;;;4442814;32;20153;-68
2021/04/29 01:55:08;;;;;;;20.80;10.23;;;6.30;77.30;;;;;;4443446;32;20529;-68
2021/04/29 01:57:35;;;;;;;20.40;10.80;;;6.30;77.80;;;;;;4442215;32;20244;-68
2021/04/29 02:00:05;;;;;;;20.77;10.50;;;6.30;78.00;;;;;;4443636;32;20174;-68
2021/04/29 02:02:31;;;;;;;19.37;10.03;;;6.30;78.30;;;;;;4443558;32;20454;-68
2021/04/29 02:04:58;;;;;;;17.27;10.10;;;6.20;79.20;;;;;;4442665;32;20512;-68
2021/04/29 02:07:24;;;;;;;18.60;10.17;;;6.10;80.30;;;;;;4441791;32;20582;-68
2021/04/29 02:09:50;;;;;;;18.57;9.93;;;6.10;80.20;;;;;;4442198;32;20504;-68
2021/04/29 02:12:17;;;;;;;21.83;10.13;;;6.10;80.40;;;;;;4443292;32;20146;-68
2021/04/29 02:14:48;;;;;;;19.20;10.43;;;6.10;80.70;;;;;;4443171;32;20391;-68
2021/04/29 02:17:44;;;;;;;19.23;10.47;;;6.10;81.50;;;;;;4442675;32;20444;-67
2021/04/29 02:20:12;;;;;;;20.67;10.20;;;6.10;81.80;;;;;;4441726;32;20199;-67
2021/04/29 02:22:40;;;;;;;19.50;10.43;;;6.10;82.20;;;;;;4443099;32;20158;-67
2021/04/29 02:25:10;;;;;;;18.77;10.60;;;6.00;82.80;;;;;;4442705;32;20202;-68
2021/04/29 02:27:38;;;;;;;21.17;10.87;;;6.00;83.10;;;;;;4442948;32;20203;-68
2021/04/29 02:30:14;;;;;;;21.27;10.30;;;5.90;83.40;;;;;;4442963;32;20251;-68
2021/04/29 02:32:41;;;;;;;19.47;11.13;;;5.90;83.40;;;;;;4442444;32;20392;-68
2021/04/29 02:35:10;;;;;;;21.63;10.93;;;5.90;84.20;;;;;;4442860;32;20158;-68
2021/04/29 02:37:38;;;;;;;18.50;10.43;;;5.80;84.30;;;;;;4442818;32;20218;-69
2021/04/29 02:40:08;;;;;;;19.97;10.50;;;5.70;84.90;;;;;;4441430;32;20185;-68
2021/04/29 02:42:36;;;;;;;20.20;10.70;;;5.80;85.10;;;;;;4442796;32;20412;-68
2021/04/29 02:45:03;;;;;;;19.77;10.70;;;5.70;85.50;;;;;;4442739;32;20154;-68
2021/04/29 02:47:30;;;;;;;19.00;10.57;;;5.60;86.50;;;;;;4442228;32;20193;-68
2021/04/29 02:49:56;;;;;;;19.57;11.13;;;5.60;87.10;;;;;;4441474;32;20204;-68
2021/04/29 02:52:23;;;;;;;21.10;11.17;;;5.60;87.90;;;;;;4442595;32;20207;-68
2021/04/29 02:54:49;;;;;;;27.33;11.23;;;5.50;89.20;;;;;;4442612;32;20170;-68
2021/04/29 02:57:21;;;;;;;22.10;11.67;;;5.50;89.80;;;;;;4441115;32;20180;-67
2021/04/29 02:59:48;;;;;;;22.57;11.90;;;5.50;90.30;;;;;;4441407;32;20158;-69
2021/04/29 03:02:15;;;;;;;21.83;11.37;;;5.40;90.60;;;;;;4441618;32;20201;-68
2021/04/29 03:04:43;;;;;;;22.87;11.97;;;5.40;90.90;;;;;;4442506;32;20173;-69
2021/04/29 03:07:09;;;;;;;23.30;11.90;;;5.40;90.90;;;;;;4442034;32;20158;-69
2021/04/29 03:09:37;;;;;;;20.37;11.73;;;5.30;91.40;;;;;;4441785;32;20496;-70
2021/04/29 03:12:06;;;;;;;25.57;12.70;;;5.20;91.70;;;;;;4442415;32;20157;-69
2021/04/29 03:14:34;;;;;;;24.97;12.57;;;5.20;91.70;;;;;;4442430;32;20162;-69
2021/04/29 03:17:02;;;;;;;23.53;12.43;;;5.20;92.30;;;;;;4442312;32;20165;-68
2021/04/29 03:19:31;;;;;;;21.07;11.70;;;5.20;92.60;;;;;;4441500;32;20167;-67
2021/04/29 03:22:03;;;;;;;22.53;12.17;;;5.20;93.10;;;;;;4442295;32;20217;-68
2021/04/29 03:24:33;;;;;;;23.93;12.43;;;5.20;93.40;;;;;;4442449;32;20200;-68
2021/04/29 03:27:25;;;;;;;21.33;12.30;;;5.20;93.40;;;;;;4441907;32;20218;-69
2021/04/29 03:29:52;;;;;;;24.00;12.10;;;5.20;93.80;;;;;;4442247;32;20214;-68
2021/04/29 03:32:18;;;;;;;22.60;12.50;;;5.10;94.50;;;;;;4440652;32;20235;-68
2021/04/29 03:34:45;;;;;;;21.53;11.60;;;5.10;95.00;;;;;;4441314;32;20189;-68
2021/04/29 03:37:12;;;;;;;27.33;12.63;;;5.10;95.50;;;;;;4440767;32;20228;-68
2021/04/29 03:39:38;;;;;;;24.03;12.33;;;5.10;95.60;;;;;;4441918;32;20158;-68
2021/04/29 03:42:06;;;;;;;21.57;12.30;;;5.10;96.10;;;;;;4440522;32;20215;-68
2021/04/29 03:44:35;;;;;;;21.27;11.90;;;5.10;96.70;;;;;;4441925;32;20152;-68
2021/04/29 03:47:03;;;;;;;22.07;12.30;;;5.10;97.10;;;;;;4441659;32;20162;-68
2021/04/29 03:49:30;;;;;;;23.43;13.23;;;5.10;97.60;;;;;;4441510;32;20165;-68
2021/04/29 03:51:57;;;;;;;22.30;12.23;;;5.20;97.70;;;;;;4437587;32;20214;-72
2021/04/29 03:54:24;;;;;;;26.03;12.77;;;5.20;98.00;;;;;;4436069;32;20162;-71
2021/04/29 03:56:51;;;;;;;21.53;12.53;;;5.30;97.90;;;;;;4437384;32;20169;-72
2021/04/29 03:59:18;;;;;;;25.17;12.73;;;5.30;98.10;;;;;;4437790;32;20577;-71
2021/04/29 04:01:44;;;;;;;25.20;12.47;;;5.30;98.80;;;;;;4438275;32;20305;-71
2021/04/29 04:04:11;;;;;;;23.67;12.67;;;5.40;98.60;;;;;;4437845;32;20488;-71
2021/04/29 04:06:37;;;;;;;22.07;12.50;;;5.40;98.90;;;;;;4440684;32;20142;-71
2021/04/29 04:09:04;;;;;;;24.23;11.97;;;5.40;99.10;;;;;;4440051;32;20153;-71
2021/04/29 04:11:31;;;;;;;26.40;12.50;;;5.40;99.40;;;;;;4440008;32;20165;-71
2021/04/29 04:13:57;;;;;;;26.33;12.13;;;5.50;99.50;;;;;;4441562;32;20148;-71
2021/04/29 04:16:26;;;;;;;21.47;12.27;;;5.50;98.90;;;;;;4427729;32;20138;-71
2021/04/29 04:18:53;;;;;;;22.60;12.23;;;5.50;99.00;;;;;;4440901;32;20154;-72
2021/04/29 04:21:19;;;;;;;22.97;12.33;;;5.60;99.60;;;;;;4440991;32;20215;-72
2021/04/29 04:23:45;;;;;;;19.33;11.53;;;5.60;99.10;;;;;;4440046;32;20155;-72
2021/04/29 04:26:12;;;;;;;20.83;11.70;;;5.60;99.30;;;;;;4441473;32;20389;-72
2021/04/29 04:28:38;;;;;;;22.80;11.77;;;5.70;99.20;;;;;;4439985;32;20138;-72
2021/04/29 04:31:05;;;;;;;23.40;12.37;;;5.70;99.00;;;;;;4439982;32;20220;-71
2021/04/29 04:33:31;;;;;;;23.77;11.77;;;5.70;99.20;;;;;;4439746;32;20226;-72
2021/04/29 04:35:58;;;;;;;24.83;12.17;;;5.70;99.60;;;;;;4441304;32;20171;-70
2021/04/29 04:38:24;;;;;;;20.03;12.13;;;5.70;99.80;;;;;;4440851;32;20174;-72
2021/04/29 04:40:51;;;;;;;24.03;12.37;;;5.80;99.60;;;;;;4441082;32;20394;-72
2021/04/29 04:43:17;;;;;;;21.80;12.20;;;5.80;99.50;;;;;;4440965;32;20173;-72
2021/04/29 04:45:44;;;;;;;21.83;11.73;;;5.90;99.60;;;;;;4439981;32;20164;-72
2021/04/29 04:48:10;;;;;;;20.87;12.50;;;5.90;99.70;;;;;;4439659;32;20138;-71
2021/04/29 04:50:37;;;;;;;24.00;12.80;;;6.00;99.60;;;;;;4439686;32;20149;-71
2021/04/29 04:53:04;;;;;;;22.90;12.33;;;6.10;99.60;;;;;;4441295;32;20146;-71
2021/04/29 04:55:33;;;;;;;26.67;12.90;;;6.10;99.80;;;;;;4441289;32;20480;-71
2021/04/29 04:58:00;;;;;;;22.53;12.53;;;6.20;99.80;;;;;;4441353;32;20195;-74
2021/04/29 05:00:26;;;;;;;23.00;12.90;;;6.20;99.90;;;;;;4451076;32;20460;-74
2021/04/29 05:02:55;;;;;;;22.53;12.60;;;6.30;99.90;;;;;;4439689;32;20142;-74
2021/04/29 05:05:21;;;;;;;24.80;12.97;;;6.40;99.90;;;;;;4439649;32;20409;-71
2021/04/29 05:07:48;;;;;;;25.87;13.93;;;6.50;99.80;;;;;;4440959;32;20146;-71
2021/04/29 05:10:17;;;;;;;25.30;13.33;;;6.40;99.90;;;;;;4439801;32;20199;-71
2021/04/29 05:12:44;;;;;;;24.83;13.90;;;6.60;99.80;;;;;;4439306;32;20182;-71
2021/04/29 05:15:11;;;;;;;23.67;13.10;;;6.70;99.90;;;;;;4440843;32;20210;-71
2021/04/29 05:17:37;;;;;;;22.27;13.53;;;6.70;99.60;;;;;;4439800;32;20191;-70
2021/04/29 05:20:04;;;;;;;23.70;13.03;;;6.90;99.50;;;;;;4440880;32;20161;-71
2021/04/29 05:22:31;;;;;;;22.70;13.73;;;7.00;99.10;;;;;;4439505;32;20138;-71
2021/04/29 05:24:57;;;;;;;23.97;13.07;;;7.10;99.20;;;;;;4440892;32;20147;-71
2021/04/29 05:27:23;;;;;;;22.20;13.83;;;7.10;99.10;;;;;;4440600;32;20211;-72
2021/04/29 05:29:50;;;;;;;25.67;13.63;;;7.30;98.90;;;;;;4440978;32;20472;-72
2021/04/29 05:32:16;;;;;;;23.80;13.67;;;7.40;99.20;;;;;;4440316;32;20139;-71
2021/04/29 05:34:43;;;;;;;23.27;13.70;;;7.40;99.10;;;;;;4440856;32;20224;-71
2021/04/29 05:37:09;;;;;;;25.60;13.97;;;7.50;99.00;;;;;;4440409;32;20496;-72
2021/04/29 05:39:36;;;;;;;22.90;13.87;;;7.70;99.20;;;;;;4439431;32;20138;-71
2021/04/29 05:42:03;;;;;;;23.23;14.03;;;7.70;99.20;;;;;;4439327;32;20146;-71
2021/04/29 05:44:29;;;;;;;24.43;14.23;;;7.70;99.90;;;;;;4439284;32;20366;-71
2021/04/29 05:46:56;;;;;;;25.03;13.77;;;7.80;99.90;;;;;;4438504;32;20166;-71
2021/04/29 05:49:22;;;;;;;24.13;14.03;;;8.00;99.80;;;;;;4438462;32;20153;-71
2021/04/29 05:51:49;;;;;;;24.37;13.70;;;8.10;99.70;;;;;;4439041;32;20196;-71
2021/04/29 05:54:15;;;;;;;23.77;13.37;;;8.30;99.50;;;;;;4439247;32;20282;-71
2021/04/29 05:56:42;;;;;;;24.33;13.37;;;8.50;98.80;;;;;;4439090;32;20421;-71
2021/04/29 05:59:08;;;;;;;23.60;13.27;;;8.40;98.80;;;;;;4439419;32;20158;-71
2021/04/29 06:01:34;;;;;;;21.73;13.40;;;8.50;98.80;;;;;;4440836;32;20332;-71
2021/04/29 06:04:02;;;;;;;20.53;12.80;;;8.50;98.60;;;;;;4442974;32;20146;-72
2021/04/29 06:06:28;;;;;;;23.47;13.23;;;8.60;98.50;;;;;;4442070;32;20192;-72
2021/04/29 06:08:55;;;;;;;17.73;12.07;;;8.60;98.60;;;;;;4441869;32;20170;-70
2021/04/29 06:11:21;;;;;;;22.47;13.40;;;8.60;98.70;;;;;;4442731;32;20138;-71
2021/04/29 06:13:47;;;;;;;24.50;12.77;;;8.60;98.90;;;;;;4441664;32;20155;-72
2021/04/29 06:16:14;;;;;;;21.23;12.93;;;8.60;99.10;;;;;;4441701;32;20143;-72
2021/04/29 06:18:42;;;;;;;21.27;13.30;;;8.80;98.50;;;;;;4441710;32;20168;-70
2021/04/29 06:21:09;;;;;;;23.03;13.50;;;9.10;98.20;;;;;;4441731;32;20360;-71
2021/04/29 06:23:35;;;;;;;24.53;13.10;;;9.20;97.70;;;;;;4442985;32;20428;-71
2021/04/29 06:26:02;;;;;;;20.67;12.83;;;9.30;97.40;;;;;;4441547;32;20189;-70
2021/04/29 06:28:29;;;;;;;22.77;14.10;;;9.40;97.50;;;;;;4441227;32;20367;-72
2021/04/29 06:30:55;;;;;;;21.80;13.20;;;9.50;97.20;;;;;;4442776;32;20150;-74
2021/04/29 06:33:25;;;;;;;21.33;13.00;;;9.60;96.60;;;;;;4441390;32;20398;-73
2021/04/29 06:35:53;;;;;;;22.47;13.70;;;9.60;96.40;;;;;;4452398;32;20186;-72
2021/04/29 06:38:20;;;;;;;20.57;13.23;;;9.60;96.40;;;;;;4441057;32;20142;-72
2021/04/29 06:40:47;;;;;;;24.53;12.87;;;9.80;97.20;;;;;;4441226;32;20147;-71
2021/04/29 06:43:14;;;;;;;23.10;13.17;;;9.80;96.30;;;;;;4442408;32;20433;-72
2021/04/29 06:45:41;;;;;;;22.93;12.60;;;9.90;96.30;;;;;;4442648;32;20460;-72
2021/04/29 06:48:08;;;;;;;21.90;13.23;;;10.10;95.40;;;;;;4442066;32;20197;-72
2021/04/29 06:50:36;;;;;;;22.80;12.63;;;10.00;95.20;;;;;;4440646;32;20196;-71
2021/04/29 06:53:03;;;;;;;24.00;13.77;;;10.20;95.20;;;;;;4442299;32;20163;-72
2021/04/29 06:55:31;;;;;;;23.43;12.87;;;10.30;95.20;;;;;;4442574;32;20150;-70
2021/04/29 06:57:57;;;;;;;23.53;13.23;;;10.40;94.60;;;;;;4441247;32;20164;-72
2021/04/29 07:00:25;;;;;;;21.07;13.10;;;10.50;94.00;;;;;;4441218;32;20166;-73
2021/04/29 07:02:55;;;;;;;21.17;12.73;;;10.50;93.90;;;;;;4440972;32;20184;-72
2021/04/29 07:05:23;;;;;;;22.13;13.53;;;10.50;93.50;;;;;;4441378;32;20184;-72
2021/04/29 07:07:51;;;;;;;23.13;13.50;;;10.50;94.00;;;;;;4440977;32;20170;-72
2021/04/29 07:10:18;;;;;;;23.83;12.93;;;10.50;93.50;;;;;;4440669;32;20383;-68
2021/04/29 07:13:04;;;;;;;20.33;12.80;;;10.70;93.50;;;;;;4440890;32;20385;-67
2021/04/29 07:15:31;;;;;;;20.60;12.80;;;10.90;93.00;;;;;;4441825;32;20407;-67
2021/04/29 07:17:58;;;;;;;22.90;12.67;;;11.00;92.30;;;;;;4441563;32;20192;-68
2021/04/29 07:20:25;;;;;;;19.13;12.10;;;11.10;91.90;;;;;;4441824;32;20182;-67
2021/04/29 07:22:51;;;;;;;20.43;12.83;;;11.20;91.80;;;;;;4440653;32;20155;-67
2021/04/29 07:25:18;;;;;;;19.60;12.40;;;11.40;92.10;;;;;;4440820;32;20150;-67
2021/04/29 07:27:45;;;;;;;22.27;13.00;;;11.40;91.10;;;;;;4440708;32;20254;-67
2021/04/29 07:30:12;;;;;;;20.13;13.33;;;11.50;91.60;;;;;;4440593;32;20418;-68
2021/04/29 07:32:38;;;;;;;22.13;13.23;;;11.70;91.50;;;;;;4440649;32;20147;-68
2021/04/29 07:35:05;;;;;;;21.97;12.53;;;11.80;90.60;;;;;;4441913;32;20232;-68
2021/04/29 07:37:32;;;;;;;19.90;12.80;;;11.90;89.90;;;;;;4442451;32;20150;-68
2021/04/29 07:39:58;;;;;;;21.07;12.67;;;12.00;89.20;;;;;;4439457;32;20169;-69
2021/04/29 07:42:25;;;;;;;20.53;13.03;;;12.00;88.90;;;;;;4441350;32;20175;-68
2021/04/29 07:44:51;;;;;;;18.70;12.43;;;12.20;90.00;;;;;;4439830;32;20197;-68
2021/04/29 07:47:21;;;;;;;19.10;12.80;;;12.40;87.60;;;;;;4440357;32;20154;-68
2021/04/29 07:49:48;;;;;;;19.87;12.17;;;12.50;87.20;;;;;;4441914;32;20174;-68
2021/04/29 07:52:14;;;;;;;21.13;12.10;;;12.80;85.70;;;;;;4439785;32;20151;-68
2021/04/29 07:54:41;;;;;;;18.50;12.03;;;13.00;85.40;;;;;;4440787;32;20217;-68
2021/04/29 07:57:08;;;;;;;20.50;12.47;;;13.20;84.00;;;;;;4440451;32;20141;-68
2021/04/29 07:59:35;;;;;;;21.47;12.40;;;13.30;81.70;;;;;;4438328;32;20206;-67
2021/04/29 08:02:02;;;;;;;23.03;12.23;;;13.40;82.10;;;;;;4437143;32;20503;-68
2021/04/29 08:04:29;;;;;;;19.40;11.97;;;13.70;81.50;;;;;;4438644;32;20158;-68
2021/04/29 08:06:56;;;;;;;20.07;11.63;;;14.00;79.30;;;;;;4434047;32;20190;-69
2021/04/29 08:09:23;;;;;;;17.93;11.50;;;14.80;75.70;;;;;;4441434;32;20417;-67
2021/04/29 08:11:52;;;;;;;17.53;11.30;;;15.80;70.60;;;;;;4439114;32;20470;-67
2021/04/29 08:14:19;;;;;;;20.43;11.40;;;16.20;68.60;;;;;;4439678;32;20154;-66
2021/04/29 08:16:51;;;;;;;14.40;10.80;;;16.90;67.20;;;;;;4437557;32;20178;-65
2021/04/29 08:19:18;;;;;;;18.23;10.80;;;17.40;62.60;;;;;;4439538;32;20158;-67
2021/04/29 08:21:47;;;;;;;16.30;10.97;;;17.60;60.90;;;;;;4440906;32;20216;-67
2021/04/29 08:24:13;;;;;;;19.80;11.30;;;18.00;60.00;;;;;;4438903;32;20151;-65
2021/04/29 08:26:40;;;;;;;17.37;11.57;;;18.10;59.00;;;;;;4439638;32;20138;-65
2021/04/29 08:29:07;;;;;;;14.63;11.50;;;18.20;58.50;;;;;;4441224;32;20174;-65
2021/04/29 08:31:34;;;;;;;17.37;10.90;;;18.20;58.00;;;;;;4441055;32;20159;-67
2021/04/29 08:34:12;;;;;;;18.67;10.83;;;18.30;57.90;;;;;;4439802;32;20210;-65
2021/04/29 08:36:44;;;;;;;17.10;11.03;;;18.30;57.50;;;;;;4440055;32;20169;-69
2021/04/29 08:39:22;;;;;;;16.80;10.40;;;18.40;57.00;;;;;;4439466;32;20208;-69
2021/04/29 08:41:48;;;;;;;15.70;10.20;;;18.60;57.10;;;;;;4439824;32;20162;-69
2021/04/29 08:44:15;;;;;;;14.67;9.87;;;18.60;55.60;;;;;;4438728;32;20211;-69
2021/04/29 08:46:42;;;;;;;14.37;9.90;;;18.70;55.40;;;;;;4440893;32;20139;-69
2021/04/29 08:49:09;;;;;;;16.73;9.80;;;18.90;56.50;;;;;;4439466;32;20197;-68
2021/04/29 08:51:38;;;;;;;17.90;10.37;;;18.70;54.60;;;;;;4441106;32;20170;-68
2021/04/29 08:54:12;;;;;;;15.53;10.70;;;18.60;54.50;;;;;;4438823;32;20207;-65
2021/04/29 08:56:59;;;;;;;15.27;10.47;;;18.60;54.90;;;;;;4432769;32;20205;-64
2021/04/29 08:59:35;;;;;;;15.57;10.23;;;18.80;54.30;;;;;;4440357;32;20146;-65
2021/04/29 09:02:19;;;;;;;16.53;10.70;;;18.90;53.00;;;;;;4439357;32;20186;-65
2021/04/29 09:05:12;;;;;;;14.93;9.90;;;18.30;54.00;;;;;;4440653;32;20170;-66
2021/04/29 09:07:37;;;;;;;14.97;10.23;;;18.10;55.30;;;;;;4440302;32;20158;-64
2021/04/29 09:10:07;;;;;;;16.17;10.57;;;18.40;54.30;;;;;;4440000;32;20397;-65
2021/04/29 09:12:44;;;;;;;17.27;10.10;;;18.50;53.30;;;;;;4438317;32;20186;-65
2021/04/29 09:15:36;;;;;;;18.53;10.73;;;18.60;54.10;;;;;;4440111;32;20176;-65
2021/04/29 09:18:08;;;;;;;14.57;10.03;;;18.70;53.50;;;;;;4437395;32;20189;-65
2021/04/29 09:20:52;;;;;;;14.77;10.00;;;19.20;53.90;;;;;;4440797;32;20173;-66
2021/04/29 09:23:33;;;;;;;15.97;9.63;;;19.30;51.80;;;;;;4439877;32;20207;-64
2021/04/29 09:26:20;;;;;;;15.37;9.80;;;19.70;51.80;;;;;;4439899;32;20193;-66
2021/04/29 09:29:05;;;;;;;16.57;9.27;;;19.80;50.90;;;;;;4439769;32;20170;-66
2021/04/29 09:31:44;;;;;;;15.70;9.87;;;19.90;51.50;;;;;;4438889;32;20168;-65
2021/04/29 09:34:25;;;;;;;15.67;9.30;;;19.70;48.90;;;;;;4438915;32;20502;-65
2021/04/29 09:37:25;;;;;;;12.87;9.10;;;19.80;50.30;;;;;;4443219;32;20146;-65
2021/04/29 09:40:03;;;;;;;17.27;9.03;;;19.70;49.20;;;;;;4443966;32;20172;-66
2021/04/29 09:42:37;;;;;;;12.43;8.77;;;20.10;50.70;;;;;;4443832;32;20154;-66
2021/04/29 09:45:16;;;;;;;12.73;8.83;;;20.50;49.80;;;;;;4444117;32;20172;-65
2021/04/29 09:47:54;;;;;;;14.87;9.20;;;21.20;48.20;;;;;;4441498;32;20203;-65
2021/04/29 09:50:31;;;;;;;13.00;8.43;;;21.50;47.10;;;;;;4442699;32;20211;-66
2021/04/29 09:53:06;;;;;;;14.43;8.87;;;21.70;46.40;;;;;;4443474;32;20165;-66
2021/04/29 09:55:45;;;;;;;13.57;8.47;;;21.80;45.90;;;;;;4442984;32;20162;-65
2021/04/29 09:58:17;;;;;;;11.48;8.13;;;22.10;45.60;;;;;;4443331;32;20193;-65
2021/04/29 10:00:45;;;;;;;12.43;8.25;;;22.60;44.90;;;;;;4443983;32;20223;-65
2021/04/29 10:03:12;;;;;;;15.93;9.02;;;22.80;44.30;;;;;;4441856;32;20169;-65
2021/04/29 10:05:40;;;;;;;11.70;8.70;;;23.00;43.80;;;;;;4438335;32;20217;-64
2021/04/29 10:08:10;;;;;;;12.80;8.55;;;23.00;42.90;;;;;;4442351;32;20207;-65
2021/04/29 10:10:39;;;;;;;14.93;8.88;;;23.00;43.50;;;;;;4440928;32;20150;-65
2021/04/29 10:13:07;;;;;;;12.85;8.10;;;23.40;43.40;;;;;;4439507;32;20476;-66
2021/04/29 10:15:35;;;;;;;13.57;8.50;;;23.90;43.30;;;;;;4443036;32;20146;-67
2021/04/29 10:18:02;;;;;;;12.30;7.87;;;24.10;42.50;;;;;;4441906;32;20155;-66
2021/04/29 10:20:30;;;;;;;11.88;7.78;;;23.90;40.20;;;;;;4441883;32;20150;-68
2021/04/29 10:22:59;;;;;;;11.95;8.40;;;23.70;41.00;;;;;;4442928;32;20196;-68
2021/04/29 10:25:33;;;;;;;12.05;8.07;;;23.30;42.40;;;;;;4443007;32;20226;-65
2021/04/29 10:28:01;;;;;;;9.82;7.47;;;23.30;43.30;;;;;;4440874;32;20184;-66
2021/04/29 10:30:38;;;;;;;9.40;7.15;;;23.60;43.50;;;;;;4441313;32;20146;-66
2021/04/29 10:33:16;;;;;;;11.43;7.07;;;23.80;42.10;;;;;;4441371;32;20168;-67
2021/04/29 10:35:51;;;;;;;10.60;6.80;;;23.30;41.80;;;;;;4441621;32;20180;-66
2021/04/29 10:38:32;;;;;;;9.35;6.45;;;23.10;42.60;;;;;;4432719;32;20479;-66
2021/04/29 10:41:15;;;;;;;10.13;6.07;;;23.40;43.10;;;;;;4442981;32;20225;-65
2021/04/29 10:43:43;;;;;;;10.95;5.70;;;23.60;42.10;;;;;;4442207;32;20163;-67
2021/04/29 10:46:10;;;;;;;9.48;6.32;;;24.20;41.00;;;;;;4442367;32;20220;-66
2021/04/29 10:48:50;;;;;;;9.60;6.70;;;24.50;40.30;;;;;;4442550;32;20187;-65
2021/04/29 10:51:21;;;;;;;9.25;5.72;;;24.50;40.10;;;;;;4442646;32;20203;-66
2021/04/29 10:53:49;;;;;;;10.15;6.47;;;25.00;40.20;;;;;;4442559;32;20162;-66
2021/04/29 10:56:19;;;;;;;9.43;6.10;;;25.40;39.70;;;;;;4441056;32;20286;-67
2021/04/29 10:58:48;;;;;;;9.07;6.05;;;25.50;38.00;;;;;;4442408;32;20204;-67
2021/04/29 11:01:21;;;;;;;7.78;5.85;;;25.40;37.20;;;;;;4442468;32;20181;-66
2021/04/29 11:03:50;;;;;;;8.70;5.95;;;25.70;37.80;;;;;;4442166;32;20158;-65
2021/04/29 11:06:33;;;;;;;8.95;5.87;;;25.60;39.30;;;;;;4442004;32;20207;-66
2021/04/29 11:09:01;;;;;;;8.48;5.75;;;26.00;39.00;;;;;;4441419;32;20211;-66
2021/04/29 11:11:34;;;;;;;10.45;6.47;;;26.00;39.40;;;;;;4441375;32;20158;-66
2021/04/29 11:14:10;;;;;;;9.65;6.18;;;25.80;38.40;;;;;;4442243;32;20172;-67
2021/04/29 11:16:53;;;;;;;10.50;6.15;;;26.50;37.60;;;;;;4442255;32;20403;-67
2021/04/29 11:19:38;;;;;;;11.32;6.07;;;26.80;37.40;;;;;;4442216;32;20184;-68
2021/04/29 11:22:08;;;;;;;8.57;6.07;;;26.90;35.70;;;;;;4440364;32;20169;-66
2021/04/29 11:24:42;;;;;;;9.32;5.75;;;27.20;34.60;;;;;;4439055;32;20512;-67
2021/04/29 11:27:26;;;;;;;10.45;6.80;;;27.00;35.30;;;;;;4441102;32;20232;-67
2021/04/29 11:30:06;;;;;;;9.85;6.07;;;26.70;36.00;;;;;;4438706;32;20233;-68
2021/04/29 11:32:35;;;;;;;10.13;5.97;;;26.80;36.10;;;;;;4440599;32;20150;-66
2021/04/29 11:35:04;;;;;;;7.18;5.68;;;26.90;33.90;;;;;;4440403;32;20150;-67
2021/04/29 11:37:42;;;;;;;9.07;6.35;;;26.60;35.90;;;;;;4440759;32;20166;-69
2021/04/29 11:40:13;;;;;;;8.70;6.35;;;26.80;36.20;;;;;;4442053;32;20138;-67
2021/04/29 11:42:43;;;;;;;8.82;6.57;;;27.40;36.40;;;;;;4441807;32;20277;-69
2021/04/29 11:45:11;;;;;;;9.45;6.37;;;27.20;37.20;;;;;;4440077;32;20218;-67
2021/04/29 11:47:54;;;;;;;9.85;6.87;;;27.70;37.30;;;;;;4441480;32;20427;-67
2021/04/29 12:22:23;;;;;;;7.03;5.75;;;27.20;36.50;;;;;;4469108;32;20208;-67
2021/04/29 12:24:51;;;;;;;6.82;5.55;;;27.90;36.80;;;;;;4468058;32;20546;-68
2021/04/29 12:27:22;;;;;;;9.35;5.87;;;27.90;36.90;;;;;;4468817;32;20141;-67
2021/04/29 12:30:06;;;;;;;9.80;5.50;;;26.70;36.70;;;;;;4470043;32;20278;-67
2021/04/29 12:32:37;;;;;;;9.88;5.90;;;25.60;38.90;;;;;;4470086;32;20146;-67
2021/04/29 12:35:05;;;;;;;8.27;5.85;;;25.40;40.00;;;;;;4468997;32;20531;-68
2021/04/29 12:49:41;;;;;;;6.97;4.60;;;25.30;39.70;;;;;;4480604;32;20207;-67
2021/04/29 12:52:12;;;;;;;8.60;4.95;;;25.70;36.80;;;;;;4483391;32;20149;-67
2021/04/29 12:54:40;;;;;;;6.65;4.72;;;25.90;37.00;;;;;;4484172;32;20149;-67
2021/04/29 12:57:07;;;;;;;6.55;5.05;;;26.20;37.60;;;;;;4484520;32;20229;-66
2021/04/29 12:59:45;;;;;;;7.55;5.00;;;26.80;37.90;;;;;;4485143;32;20134;-66
2021/04/29 13:02:12;;;;;;;9.48;5.85;;;25.90;38.70;;;;;;4475233;32;20232;-66
2021/04/29 13:04:39;;;;;;;7.35;5.30;;;24.70;40.60;;;;;;4484292;32;20539;-66
2021/04/29 13:07:08;;;;;;;11.10;5.45;;;24.50;41.50;;;;;;4484403;32;20470;-66
2021/04/29 13:09:40;;;;;;;8.70;5.45;;;24.20;41.60;;;;;;4483764;32;20165;-67
2021/04/29 13:12:11;;;;;;;9.38;5.25;;;24.60;42.40;;;;;;4485151;32;20134;-66
2021/04/29 13:14:40;;;;;;;7.60;5.30;;;25.00;41.10;;;;;;4485189;32;20403;-66
2021/04/29 13:17:16;;;;;;;7.47;5.22;;;24.90;40.70;;;;;;4483808;32;20527;-67
2021/04/29 13:19:45;;;;;;;7.43;5.10;;;25.00;41.50;;;;;;4484677;32;20228;-66
2021/04/29 13:22:13;;;;;;;6.90;4.53;;;25.50;40.70;;;;;;4483313;32;20156;-67
2021/04/29 13:24:40;;;;;;;6.30;4.43;;;25.40;36.80;;;;;;4484141;32;20192;-66
2021/04/29 13:27:07;;;;;;;6.30;4.20;;;25.10;36.80;;;;;;4467789;32;20138;-68
2021/04/29 13:29:35;;;;;;;8.75;4.50;;;25.50;35.10;;;;;;4479703;32;20162;-68
2021/04/29 13:32:02;;;;;;;7.50;4.50;;;26.10;34.90;;;;;;4483032;32;20200;-67
2021/04/29 13:34:29;;;;;;;8.30;4.60;;;26.70;34.80;;;;;;4484760;32;20429;-67
2021/04/29 13:36:55;;;;;;;7.32;4.95;;;26.50;35.50;;;;;;4483328;32;20336;-68